createdAt,value
2022-09-26T00:01:20.415Z,6.38
2022-09-26T00:03:49.908Z,3.42
2022-09-26T00:06:18.334Z,5.95
2022-09-26T00:08:46.843Z,4.95
2022-09-26T00:11:17.465Z,4.90
2022-09-26T00:13:45.196Z,4.38
2022-09-26T00:16:13.460Z,4.68
2022-09-26T00:18:40.577Z,4.57
2022-09-26T00:21:11.095Z,5.63
2022-09-26T00:23:38.337Z,5.75
2022-09-26T00:26:06.178Z,4.57
2022-09-26T00:28:33.065Z,4.70
2022-09-26T00:31:05.485Z,4.40
2022-09-26T00:33:32.831Z,5.00
2022-09-26T00:35:59.754Z,4.57
2022-09-26T00:38:26.778Z,5.25
2022-09-26T00:40:54.073Z,3.67
2022-09-26T00:43:35.913Z,4.38
2022-09-26T00:46:40.101Z,7.75
2022-09-26T00:49:25.774Z,3.05
2022-09-26T00:51:58.011Z,4.65
2022-09-26T00:54:28.061Z,9.43
2022-09-26T00:56:59.009Z,5.78
2022-09-26T00:59:30.647Z,4.28
2022-09-26T01:01:59.656Z,5.97
2022-09-26T01:04:29.246Z,7.03
2022-09-26T01:06:58.398Z,5.18
2022-09-26T01:09:27.637Z,7.63
2022-09-26T01:11:55.660Z,6.45
2022-09-26T01:14:22.738Z,4.72
2022-09-26T01:16:54.222Z,6.18
2022-09-26T01:19:35.640Z,6.50
2022-09-26T01:22:17.646Z,5.57
2022-09-26T01:25:18.784Z,4.88
2022-09-26T01:28:07.318Z,5.47
2022-09-26T01:31:13.370Z,5.07
2022-09-26T01:33:46.402Z,5.88
2022-09-26T01:36:23.763Z,6.07
2022-09-26T01:39:11.892Z,6.47
2022-09-26T01:41:58.531Z,7.20
2022-09-26T01:44:40.112Z,5.45
2022-09-26T01:47:15.737Z,5.97
2022-09-26T01:49:54.250Z,8.38
2022-09-26T01:52:28.872Z,6.15
2022-09-26T01:55:14.692Z,5.72
2022-09-26T01:57:53.191Z,7.03
2022-09-26T02:00:21.041Z,6.47
2022-09-26T02:02:49.995Z,6.72
2022-09-26T02:05:25.407Z,6.75
2022-09-26T02:08:04.529Z,6.47
2022-09-26T02:10:36.769Z,7.50
2022-09-26T02:13:11.741Z,6.70
2022-09-26T02:15:40.721Z,5.90
2022-09-26T02:18:20.519Z,4.85
2022-09-26T02:20:55.989Z,8.15
2022-09-26T02:23:22.802Z,6.20
2022-09-26T02:25:49.715Z,6.43
2022-09-26T02:28:16.602Z,5.50
2022-09-26T02:30:46.419Z,6.05
2022-09-26T02:33:13.771Z,7.47
2022-09-26T02:35:55.947Z,7.25
2022-09-26T02:38:25.198Z,7.68
2022-09-26T02:41:18.156Z,8.52
2022-09-26T02:44:00.953Z,6.50
2022-09-26T02:46:38.647Z,6.70
2022-09-26T02:49:22.288Z,5.13
2022-09-26T02:52:08.333Z,8.45
2022-09-26T02:55:01.820Z,5.00
2022-09-26T02:57:46.260Z,4.75
2022-09-26T03:00:21.354Z,6.07
2022-09-26T03:03:04.447Z,5.72
2022-09-26T03:05:35.284Z,5.72
2022-09-26T03:08:12.741Z,5.75
2022-09-26T03:10:41.050Z,4.43
2022-09-26T03:13:13.536Z,8.75
2022-09-26T03:15:45.421Z,4.50
2022-09-26T03:18:17.159Z,6.63
2022-09-26T03:20:44.866Z,5.50
2022-09-26T03:23:11.661Z,3.78
2022-09-26T03:25:39.716Z,6.05
2022-09-26T03:28:06.612Z,6.13
2022-09-26T03:30:33.922Z,5.07
2022-09-26T03:33:03.380Z,4.75
2022-09-26T03:35:30.500Z,6.03
2022-09-26T03:37:57.303Z,6.45
2022-09-26T03:40:24.143Z,4.57
2022-09-26T03:42:51.059Z,4.15
2022-09-26T03:45:17.981Z,4.93
2022-09-26T03:47:44.786Z,4.80
2022-09-26T03:50:11.811Z,6.18
2022-09-26T03:52:38.610Z,5.28
2022-09-26T03:55:05.775Z,4.40
2022-09-26T03:57:32.874Z,4.07
2022-09-26T03:59:59.689Z,6.40
2022-09-26T04:02:26.615Z,2.58
2022-09-26T04:04:53.423Z,3.15
2022-09-26T04:07:20.235Z,2.97
2022-09-26T04:09:47.074Z,3.63
2022-09-26T04:12:13.878Z,4.70
2022-09-26T04:14:40.820Z,6.53
2022-09-26T04:17:08.108Z,3.25
2022-09-26T04:19:34.950Z,5.13
2022-09-26T04:22:01.800Z,3.40
2022-09-26T04:24:28.600Z,3.38
2022-09-26T04:26:55.563Z,3.25
2022-09-26T04:29:22.786Z,2.40
2022-09-26T04:31:51.552Z,3.20
2022-09-26T04:34:21.304Z,23.98
2022-09-26T04:36:51.916Z,5.43
2022-09-26T04:39:19.163Z,5.13
2022-09-26T04:41:45.955Z,9.73
2022-09-26T04:44:13.111Z,7.63
2022-09-26T04:46:39.933Z,6.03
2022-09-26T04:49:06.874Z,5.63
2022-09-26T04:51:33.785Z,3.72
2022-09-26T04:54:00.685Z,5.65
2022-09-26T04:56:29.738Z,3.60
2022-09-26T04:58:58.252Z,9.07
2022-09-26T05:01:25.963Z,5.90
2022-09-26T05:03:55.977Z,3.80
2022-09-26T05:06:22.883Z,5.38
2022-09-26T05:08:49.876Z,7.70
2022-09-26T05:11:18.086Z,8.15
2022-09-26T05:13:45.351Z,6.78
2022-09-26T05:16:14.672Z,6.20
2022-09-26T05:18:42.274Z,5.30
2022-09-26T05:21:09.261Z,3.45
2022-09-26T05:23:55.510Z,5.95
2022-09-26T05:26:32.340Z,3.15
2022-09-26T05:29:08.398Z,2.10
2022-09-26T05:31:38.174Z,8.90
2022-09-26T05:34:14.355Z,4.47
2022-09-26T05:36:45.553Z,5.70
2022-09-26T05:39:30.743Z,8.02
2022-09-26T05:41:59.563Z,3.75
2022-09-26T05:44:26.897Z,5.85
2022-09-26T05:46:53.813Z,6.22
2022-09-26T05:49:20.746Z,1.85
2022-09-26T05:51:47.697Z,2.80
2022-09-26T05:54:14.646Z,3.83
2022-09-26T05:56:41.577Z,8.13
2022-09-26T05:59:08.707Z,1.73
2022-09-26T06:01:36.266Z,1.80
2022-09-26T06:04:03.434Z,5.43
2022-09-26T06:06:30.611Z,5.07
2022-09-26T06:08:57.590Z,18.02
2022-09-26T06:11:33.689Z,72.25
2022-09-26T06:14:01.127Z,112.70
2022-09-26T06:16:28.993Z,116.63
2022-09-26T06:18:56.102Z,96.55
2022-09-26T06:21:24.086Z,69.85
2022-09-26T06:23:50.986Z,62.90
2022-09-26T06:26:26.155Z,51.95
2022-09-26T06:29:07.831Z,27.45
2022-09-26T06:31:34.969Z,25.65
2022-09-26T06:34:02.049Z,36.03
2022-09-26T06:36:28.889Z,15.82
2022-09-26T06:38:57.000Z,12.45
2022-09-26T06:41:26.706Z,15.60
2022-09-26T06:43:53.918Z,13.43
2022-09-26T06:46:21.930Z,9.30
2022-09-26T06:48:49.172Z,11.68
2022-09-26T06:51:16.108Z,10.73
2022-09-26T06:53:46.158Z,7.88
2022-09-26T06:56:13.761Z,12.57
2022-09-26T06:58:40.690Z,8.00
2022-09-26T07:01:08.041Z,8.35
2022-09-26T07:03:35.174Z,9.27
2022-09-26T07:06:02.185Z,8.38
2022-09-26T07:08:57.467Z,9.73
2022-09-26T07:11:35.002Z,6.60
2022-09-26T07:14:03.544Z,7.72
2022-09-26T07:16:31.152Z,6.35
2022-09-26T07:18:58.223Z,5.65
2022-09-26T07:21:25.217Z,6.20
2022-09-26T07:23:56.935Z,6.55
2022-09-26T07:26:23.879Z,3.40
2022-09-26T07:28:54.439Z,5.60
2022-09-26T07:33:51.313Z,7.45
2022-09-26T07:36:18.789Z,4.30
2022-09-26T07:38:49.008Z,3.40
2022-09-26T07:41:16.755Z,4.75
2022-09-26T07:46:49.834Z,3.15
2022-09-26T07:49:35.585Z,4.28
2022-09-26T07:52:03.390Z,2.15
2022-09-26T07:54:30.320Z,3.20
2022-09-26T07:56:57.475Z,2.90
2022-09-26T07:59:24.516Z,4.05
2022-09-26T08:01:53.122Z,4.90
2022-09-26T08:04:20.210Z,3.88
2022-09-26T08:06:47.368Z,8.85
2022-09-26T08:09:14.454Z,3.40
2022-09-26T08:11:42.457Z,1.85
2022-09-26T08:14:09.652Z,3.13
2022-09-26T08:16:40.003Z,2.90
2022-09-26T08:19:08.675Z,2.87
2022-09-26T08:21:35.973Z,3.90
2022-09-26T08:24:03.040Z,2.30
2022-09-26T08:26:30.042Z,2.30
2022-09-26T08:28:59.279Z,1.75
2022-09-26T08:31:26.584Z,1.77
2022-09-26T08:33:54.400Z,1.25
2022-09-26T08:36:21.842Z,1.40
2022-09-26T08:38:50.651Z,3.08
2022-09-26T08:41:32.699Z,1.52
2022-09-26T08:44:22.871Z,2.25
2022-09-26T08:47:39.130Z,2.88
2022-09-26T08:50:36.775Z,1.80
2022-09-26T08:53:16.763Z,1.55
2022-09-26T08:55:46.951Z,2.83
2022-09-26T08:58:29.095Z,1.50
2022-09-26T09:01:03.213Z,2.80
2022-09-26T09:03:52.230Z,2.30
2022-09-26T09:06:19.846Z,3.55
2022-09-26T09:08:51.730Z,2.17
2022-09-26T09:11:33.898Z,4.07
2022-09-26T09:14:10.035Z,2.33
2022-09-26T09:17:00.177Z,2.53
2022-09-26T09:19:32.480Z,3.30
2022-09-26T09:22:27.156Z,1.90
2022-09-26T09:25:13.577Z,2.78
2022-09-26T09:28:12.835Z,1.92
2022-09-26T09:30:40.019Z,15.50
2022-09-26T09:33:21.561Z,3.40
2022-09-26T09:35:54.126Z,2.25
2022-09-26T09:38:27.210Z,3.15
2022-09-26T09:41:03.252Z,2.60
2022-09-26T09:43:56.659Z,2.40
2022-09-26T09:46:29.080Z,1.33
2022-09-26T09:49:18.154Z,2.42
2022-09-26T09:52:14.198Z,1.83
2022-09-26T09:55:16.668Z,1.05
2022-09-26T09:57:52.474Z,2.20
2022-09-26T10:00:24.807Z,2.47
2022-09-26T10:03:19.541Z,1.85
2022-09-26T10:05:50.977Z,1.67
2022-09-26T10:08:27.692Z,3.20
2022-09-26T10:11:13.403Z,2.30
2022-09-26T10:13:43.270Z,2.47
2022-09-26T10:16:14.757Z,2.40
2022-09-26T10:19:04.499Z,1.55
2022-09-26T10:21:35.823Z,2.85
2022-09-26T10:24:06.856Z,2.22
2022-09-26T10:26:36.990Z,1.10
2022-09-26T10:29:25.203Z,3.13
2022-09-26T10:31:56.613Z,3.15
2022-09-26T10:34:31.331Z,3.17
2022-09-26T10:37:20.937Z,2.17
2022-09-26T10:40:17.300Z,4.15
2022-09-26T10:42:47.411Z,2.58
2022-09-26T10:45:27.458Z,1.13
2022-09-26T10:47:57.258Z,2.25
2022-09-26T10:50:28.793Z,1.38
2022-09-26T10:53:10.136Z,1.08
2022-09-26T10:55:44.301Z,1.48
2022-09-26T10:58:18.583Z,2.33
2022-09-26T11:00:52.628Z,1.55
2022-09-26T11:03:33.590Z,1.80
2022-09-26T11:06:00.826Z,1.63
2022-09-26T11:08:30.428Z,1.10
2022-09-26T11:11:11.531Z,1.15
2022-09-26T11:13:46.716Z,2.85
2022-09-26T11:16:17.808Z,1.73
2022-09-26T11:22:14.936Z,1.25
2022-09-26T11:25:09.635Z,0.82
2022-09-26T11:27:45.425Z,1.13
2022-09-26T11:30:17.888Z,2.20
2022-09-26T11:32:52.255Z,1.30
2022-09-26T11:35:31.201Z,1.65
2022-09-26T11:38:24.318Z,0.95
2022-09-26T11:41:16.876Z,1.73
2022-09-26T11:43:59.171Z,1.92
2022-09-26T11:46:34.767Z,0.90
2022-09-26T11:49:35.732Z,1.58
2022-09-26T11:52:30.053Z,0.73
2022-09-26T11:55:18.241Z,1.77
2022-09-26T11:58:03.624Z,1.42
2022-09-26T12:00:49.082Z,0.55
2022-09-26T12:03:41.453Z,2.17
2022-09-26T12:06:19.303Z,1.23
2022-09-26T12:08:58.105Z,0.60
2022-09-26T12:11:53.553Z,0.70
2022-09-26T12:14:45.979Z,1.70
2022-09-26T12:17:35.599Z,1.67
2022-09-26T12:20:17.867Z,1.42
2022-09-26T12:22:53.668Z,1.27
2022-09-26T12:25:26.809Z,1.92
2022-09-26T12:28:38.395Z,1.08
2022-09-26T12:34:16.623Z,1.13
2022-09-26T12:37:14.745Z,2.83
2022-09-26T12:40:01.090Z,2.03
2022-09-26T12:42:37.023Z,1.25
2022-09-26T12:45:06.989Z,1.10
2022-09-26T12:48:06.574Z,0.88
2022-09-26T12:50:44.649Z,0.75
2022-09-26T12:53:20.713Z,1.67
2022-09-26T12:56:11.442Z,2.15
2022-09-26T12:58:47.187Z,1.45
2022-09-26T13:01:41.732Z,2.95
2022-09-26T13:04:34.795Z,1.80
2022-09-26T13:07:28.091Z,0.80
2022-09-26T13:10:07.529Z,1.13
2022-09-26T13:12:52.568Z,2.10
2022-09-26T13:15:35.984Z,3.30
2022-09-26T13:18:12.903Z,1.02
2022-09-26T13:20:45.296Z,0.75
2022-09-26T13:23:35.233Z,0.90
2022-09-26T13:26:26.351Z,0.68
2022-09-26T13:29:23.700Z,0.80
2022-09-26T13:32:15.956Z,0.75
2022-09-26T13:34:52.107Z,0.20
2022-09-26T13:37:35.218Z,0.73
2022-09-26T13:40:21.563Z,0.98
2022-09-26T13:43:04.324Z,0.63
2022-09-26T13:45:59.339Z,0.85
2022-09-26T13:48:50.523Z,0.22
2022-09-26T13:51:30.993Z,0.50
2022-09-26T13:54:13.505Z,0.57
2022-09-26T13:56:48.631Z,0.35
2022-09-26T13:59:16.021Z,0.43
2022-09-26T14:02:16.899Z,0.73
2022-09-26T14:04:46.077Z,0.85
2022-09-26T14:07:32.196Z,0.50
2022-09-26T14:10:05.527Z,0.90
2022-09-26T14:12:52.990Z,0.32
2022-09-26T14:15:27.354Z,0.52
2022-09-26T14:18:07.516Z,1.85
2022-09-26T14:20:52.870Z,2.47
2022-09-26T14:23:40.391Z,0.47
2022-09-26T14:26:41.118Z,0.43
2022-09-26T14:29:29.746Z,0.43
2022-09-26T14:32:16.698Z,0.85
2022-09-26T14:34:54.015Z,1.02
2022-09-26T14:37:26.806Z,1.20
2022-09-26T14:40:00.202Z,1.52
2022-09-26T14:42:37.399Z,0.57
2022-09-26T14:45:20.376Z,1.00
2022-09-26T14:48:01.396Z,1.25
2022-09-26T14:50:34.691Z,1.45
2022-09-26T14:53:31.914Z,0.50
2022-09-26T14:56:03.351Z,2.15
2022-09-26T14:58:37.537Z,1.00
2022-09-26T15:01:37.827Z,0.88
2022-09-26T15:04:19.586Z,0.75
2022-09-26T15:06:54.702Z,0.73
2022-09-26T15:09:31.593Z,0.73
2022-09-26T15:12:02.804Z,0.40
2022-09-26T15:14:40.713Z,3.50
2022-09-26T15:17:19.017Z,0.75
2022-09-26T15:19:52.496Z,8.25
2022-09-26T15:22:24.185Z,6.65
2022-09-26T15:24:55.889Z,15.60
2022-09-26T15:27:29.611Z,16.85
2022-09-26T15:30:07.102Z,8.65
2022-09-26T15:32:34.638Z,0.70
2022-09-26T15:35:03.870Z,7.90
2022-09-26T15:37:36.512Z,5.40
2022-09-26T15:40:20.153Z,1.63
2022-09-26T15:43:01.859Z,2.03
2022-09-26T15:45:33.341Z,6.68
2022-09-26T15:48:04.639Z,3.85
2022-09-26T15:53:04.816Z,2.95
2022-09-26T15:55:37.241Z,2.15
2022-09-26T15:58:07.172Z,11.35
2022-09-26T16:00:37.801Z,10.57
2022-09-26T16:03:18.251Z,8.10
2022-09-26T16:05:48.280Z,8.90
2022-09-26T16:08:27.221Z,3.97
2022-09-26T16:10:59.931Z,6.10
2022-09-26T16:13:35.627Z,8.18
2022-09-26T16:16:08.252Z,10.98
2022-09-26T16:18:40.181Z,4.15
2022-09-26T16:21:22.760Z,7.07
2022-09-26T16:23:52.973Z,5.22
2022-09-26T16:26:44.489Z,10.48
2022-09-26T16:29:11.736Z,19.38
2022-09-26T16:31:47.152Z,12.35
2022-09-26T16:34:19.205Z,6.25
2022-09-26T16:36:46.588Z,4.13
2022-09-26T16:39:24.256Z,3.80
2022-09-26T16:42:01.752Z,11.35
2022-09-26T16:44:50.274Z,6.72
2022-09-26T16:47:35.669Z,5.82
2022-09-26T16:50:31.615Z,12.63
2022-09-26T16:52:58.623Z,2.70
2022-09-26T16:55:27.591Z,27.00
2022-09-26T16:58:00.509Z,9.82
2022-09-26T17:00:52.654Z,3.95
2022-09-26T17:03:32.492Z,6.60
2022-09-26T17:06:00.906Z,5.43
2022-09-26T17:08:28.506Z,20.08
2022-09-26T17:10:59.697Z,4.55
2022-09-26T17:15:57.566Z,6.50
2022-09-26T17:18:29.716Z,4.15
2022-09-26T17:20:59.450Z,5.38
2022-09-26T17:23:42.712Z,8.55
2022-09-26T17:26:20.117Z,17.05
2022-09-26T17:28:47.714Z,18.15
2022-09-26T17:31:20.058Z,5.05
2022-09-26T17:33:51.694Z,8.88
2022-09-26T17:36:25.455Z,8.23
2022-09-26T17:38:53.661Z,17.05
2022-09-26T17:41:22.704Z,14.95
2022-09-26T17:43:50.543Z,7.05
2022-09-26T17:46:17.570Z,10.10
2022-09-26T17:48:45.167Z,5.40
2022-09-26T17:51:14.816Z,6.95
2022-09-26T17:53:50.362Z,9.73
2022-09-26T17:56:18.083Z,11.43
2022-09-26T17:58:47.467Z,7.07
2022-09-26T18:01:27.039Z,8.20
2022-09-26T18:04:00.177Z,9.27
2022-09-26T18:06:31.869Z,2.60
2022-09-26T18:09:05.504Z,2.53
2022-09-26T18:11:34.789Z,2.85
2022-09-26T18:14:04.659Z,2.75
2022-09-26T18:16:31.955Z,4.72
2022-09-26T18:19:02.146Z,3.50
2022-09-26T18:21:34.725Z,4.25
2022-09-26T18:24:07.304Z,12.68
2022-09-26T18:26:44.990Z,8.77
2022-09-26T18:29:15.587Z,5.90
2022-09-26T18:31:46.564Z,11.45
2022-09-26T18:34:18.947Z,11.35
2022-09-26T18:36:46.902Z,7.68
2022-09-26T18:39:13.995Z,10.43
2022-09-26T18:41:41.225Z,5.25
2022-09-26T18:44:16.788Z,5.50
2022-09-26T18:46:46.466Z,7.15
2022-09-26T18:49:14.011Z,8.88
2022-09-26T18:51:41.106Z,4.22
2022-09-26T18:54:17.354Z,6.05
2022-09-26T18:57:03.069Z,3.17
2022-09-26T18:59:31.470Z,7.43
2022-09-26T19:02:01.606Z,6.07
2022-09-26T19:04:31.334Z,6.75
2022-09-26T19:07:05.343Z,7.13
2022-09-26T19:09:34.612Z,5.45
2022-09-26T19:12:03.018Z,8.98
2022-09-26T19:14:31.922Z,8.63
2022-09-26T19:16:59.792Z,7.97
2022-09-26T19:19:29.397Z,10.13
2022-09-26T19:22:12.984Z,17.90
2022-09-26T19:24:52.611Z,19.27
2022-09-26T19:27:54.897Z,29.67
2022-09-26T19:30:23.141Z,36.88
2022-09-26T19:32:56.512Z,32.75
2022-09-26T19:35:31.051Z,28.52
2022-09-26T19:38:02.050Z,28.83
2022-09-26T19:40:29.893Z,26.25
2022-09-26T19:42:57.779Z,27.00
2022-09-26T19:45:27.439Z,40.20
2022-09-26T19:47:56.531Z,26.50
2022-09-26T19:50:28.997Z,23.08
2022-09-26T19:53:01.434Z,18.33
2022-09-26T19:55:38.883Z,21.38
2022-09-26T19:58:18.111Z,18.33
2022-09-26T20:00:50.118Z,15.13
2022-09-26T20:03:20.314Z,19.67
2022-09-26T20:05:49.815Z,24.98
2022-09-26T20:08:25.504Z,21.35
2022-09-26T20:10:55.089Z,16.65
2022-09-26T20:13:22.471Z,14.95
2022-09-26T20:15:49.859Z,12.85
2022-09-26T20:18:21.194Z,10.52
2022-09-26T20:20:53.865Z,12.85
2022-09-26T20:23:23.794Z,20.58
2022-09-26T20:25:53.173Z,13.70
2022-09-26T20:28:20.771Z,16.85
2022-09-26T20:30:54.827Z,13.13
2022-09-26T20:33:24.178Z,13.88
2022-09-26T20:36:02.870Z,13.30
2022-09-26T20:38:49.738Z,10.95
2022-09-26T20:41:16.853Z,32.20
2022-09-26T20:43:47.185Z,16.02
2022-09-26T20:46:15.347Z,11.80
2022-09-26T20:48:44.798Z,10.05
2022-09-26T20:51:27.664Z,9.05
2022-09-26T20:53:54.929Z,7.32
2022-09-26T20:56:22.204Z,7.75
2022-09-26T20:58:49.729Z,6.20
2022-09-26T21:01:18.968Z,7.13
2022-09-26T21:03:56.296Z,6.93
2022-09-26T21:06:28.457Z,5.72
2022-09-26T21:08:55.780Z,4.93
2022-09-26T21:11:23.315Z,5.57
2022-09-26T21:13:51.058Z,4.53
2022-09-26T21:16:22.343Z,5.82
2022-09-26T21:18:52.417Z,5.30
2022-09-26T21:21:19.678Z,4.25
2022-09-26T21:23:48.432Z,4.93
2022-09-26T21:26:24.126Z,4.20
2022-09-26T21:28:52.421Z,6.80
2022-09-26T21:31:31.234Z,4.82
2022-09-26T21:34:00.009Z,3.97
2022-09-26T21:36:34.917Z,2.83
2022-09-26T21:39:02.777Z,2.92
2022-09-26T21:41:30.828Z,4.78
2022-09-26T21:44:06.326Z,3.40
2022-09-26T21:46:33.409Z,3.33
2022-09-26T21:49:00.632Z,3.10
2022-09-26T21:51:29.475Z,2.72
2022-09-26T21:54:03.636Z,3.15
2022-09-26T21:56:35.910Z,2.67
2022-09-26T21:59:05.934Z,2.50
2022-09-26T22:01:32.975Z,3.97
2022-09-26T22:04:00.115Z,8.02
2022-09-26T22:06:27.511Z,8.93
2022-09-26T22:08:54.983Z,5.22
2022-09-26T22:11:22.417Z,5.60
2022-09-26T22:13:49.425Z,2.60
2022-09-26T22:16:17.058Z,4.43
2022-09-26T22:18:44.160Z,4.32
2022-09-26T22:21:11.580Z,1.38
2022-09-26T22:23:39.190Z,7.10
2022-09-26T22:26:06.829Z,5.32
2022-09-26T22:28:33.742Z,6.97
2022-09-26T22:31:02.180Z,3.50
2022-09-26T22:33:29.788Z,2.50
2022-09-26T22:35:57.674Z,2.08
2022-09-26T22:38:25.129Z,2.97
2022-09-26T22:41:05.792Z,1.77
2022-09-26T22:43:34.090Z,1.55
2022-09-26T22:46:03.409Z,3.50
2022-09-26T22:48:38.161Z,1.27
2022-09-26T22:51:06.301Z,2.42
2022-09-26T22:53:35.729Z,3.10
2022-09-26T22:56:05.606Z,3.22
2022-09-26T22:58:36.869Z,2.50
2022-09-26T23:01:09.479Z,1.25
2022-09-26T23:03:36.923Z,3.67
2022-09-26T23:06:05.240Z,2.38
2022-09-26T23:08:33.400Z,1.35
2022-09-26T23:11:01.599Z,1.73
2022-09-26T23:13:30.428Z,2.15
2022-09-26T23:16:04.892Z,3.33
2022-09-26T23:18:31.952Z,3.20
2022-09-26T23:20:58.796Z,2.35
2022-09-26T23:23:25.716Z,2.35
2022-09-26T23:25:52.563Z,2.47
2022-09-26T23:28:19.520Z,1.42
2022-09-26T23:30:47.036Z,3.35
2022-09-26T23:33:13.983Z,2.85
2022-09-26T23:35:40.934Z,2.28
2022-09-26T23:38:08.258Z,1.48
2022-09-26T23:40:37.790Z,2.03
2022-09-26T23:43:04.768Z,1.52
2022-09-26T23:45:31.625Z,2.17
2022-09-26T23:47:58.556Z,2.65
2022-09-26T23:50:26.183Z,1.75
2022-09-26T23:52:53.738Z,1.33
2022-09-26T23:55:20.573Z,2.90
2022-09-26T23:57:47.374Z,3.45
